Terminal Aerodrome Forecast
Issued by NWS Anchorage, AK

Home | Current Version | Previous Version | Text Only | Print | Product List | Glossary On
Versions: 1 2 3 4 5 6 7 8 9 10 11 12 13 14 15 16 17 18 19 20 21 22 23 24 25 26 27 28
000
FTAK31 PANC 212340
TAFANC
TAF
PANC 212340Z 2200/2306 VRB04KT P6SM VCFG SCT004 OVC140
      TEMPO 2200/2203 SCT005 BKN040
     FM220600 12005KT P6SM -SN SCT020 OVC035
     FM221200 14015KT 5SM -SN FEW015 BKN025
     FM221500 12010KT 2SM -SN BR FEW005 OVC015
     FM222100 22006KT 1SM -SN OVC015
     FM230100 22008KT P6SM -SHSN BKN015=

USA.gov is the U.S. government's official web portal to all federal, state and local government web resources and services.